Boy River, Minnesota
Current Conditions -  °F | °C
As of 12:36 PM on Saturday 20 Dec 2014 (Local Time) from KXVG Reporting Station
Haze Haze  
Wind Chill: 20°   Ceiling: 600
Heat Index: 28°   Visibility: 2.5mi
Dew Point: 28°   Wind: 8mph
Humidity: 100%   Direction: 180°S
Pressure: 30.02"   Gusts: NA
Location:  47.0973°N, 93.9173°W
Report Text: KXVG 201836Z AUTO 18007KT 2 1/2SM BR OVC006 M02/M02 A3002 RMK AO2
Loading
Personal Weather Stations






























Interactive Weather Map New forecast layout! Learn more

10-Day Weather Forecast

Advertisements
Track Severe Weather on mobile